createdAt,value
2018-10-01T00:00:20.100Z,2.33
2018-10-01T00:04:23.516Z,2.33
2018-10-01T00:08:26.920Z,2.37
2018-10-01T00:12:30.287Z,1.90
2018-10-01T00:16:33.676Z,2.53
2018-10-01T00:20:42.334Z,2.07
2018-10-01T09:30:41.020Z,4.40
2018-10-01T09:34:44.710Z,3.67
2018-10-01T09:38:48.484Z,4.00
2018-10-01T09:42:52.200Z,4.40
2018-10-01T09:46:55.916Z,3.63
2018-10-01T09:51:00.991Z,4.07
2018-10-01T09:55:04.819Z,4.20
2018-10-01T09:59:08.620Z,4.20
2018-10-01T10:03:12.804Z,4.43
2018-10-01T10:07:16.857Z,4.50
2018-10-01T10:11:22.001Z,4.43
2018-10-01T10:15:25.691Z,4.10
2018-10-01T10:19:29.367Z,4.80
2018-10-01T10:23:33.964Z,4.50
2018-10-01T10:27:38.636Z,4.70
2018-10-01T10:31:42.851Z,4.63
2018-10-01T10:35:46.438Z,4.80
2018-10-01T10:39:50.108Z,4.63
2018-10-01T10:43:55.103Z,5.33
2018-10-01T10:47:58.839Z,4.50
2018-10-01T10:52:04.591Z,4.60
2018-10-01T10:56:21.600Z,4.73
2018-10-01T11:00:45.442Z,4.43
2018-10-01T11:05:12.124Z,4.40
2018-10-01T11:13:59.161Z,4.97
2018-10-01T11:22:52.175Z,4.43
2018-10-01T11:27:03.818Z,4.87
2018-10-01T11:31:07.480Z,5.40
2018-10-01T11:35:13.705Z,5.10
2018-10-01T11:39:33.876Z,5.43
2018-10-01T11:48:25.674Z,5.10
2018-10-01T11:57:29.770Z,5.20
2018-10-01T12:43:25.875Z,4.37
2018-10-01T13:01:16.804Z,4.20
2018-10-01T13:09:58.364Z,4.47
2018-10-01T13:14:02.722Z,4.77
2018-10-01T13:50:12.699Z,5.50
2018-10-01T13:54:38.549Z,6.30
2018-10-01T13:58:42.027Z,5.33
2018-10-01T14:02:45.967Z,5.77
2018-10-01T14:06:50.447Z,5.20
2018-10-01T14:10:54.027Z,5.20
2018-10-01T14:14:57.732Z,5.03
2018-10-01T14:19:01.822Z,5.23
2018-10-01T14:23:06.114Z,5.03
2018-10-01T14:31:49.165Z,5.27
2018-10-01T14:40:08.549Z,5.27
2018-10-01T14:44:14.636Z,6.13
2018-10-01T14:48:18.372Z,4.87
2018-10-01T14:52:22.583Z,5.13
2018-10-01T15:01:05.000Z,4.93
2018-10-01T15:05:08.631Z,5.27
2018-10-01T15:09:14.748Z,5.20
2018-10-01T15:17:36.295Z,4.90
2018-10-01T15:21:41.887Z,4.90
2018-10-01T15:25:47.929Z,5.57
2018-10-01T15:29:52.692Z,5.20
2018-10-01T15:33:57.933Z,4.80
2018-10-01T15:38:03.378Z,5.23
2018-10-01T15:42:08.513Z,5.10
2018-10-01T15:46:14.637Z,5.47
2018-10-01T15:50:22.250Z,5.60
2018-10-01T15:54:26.415Z,5.23
2018-10-01T15:58:30.266Z,6.30
2018-10-01T16:02:35.406Z,6.10
2018-10-01T16:06:40.031Z,5.80
2018-10-01T16:10:45.764Z,6.10
2018-10-01T16:14:57.829Z,5.87
2018-10-01T16:19:03.511Z,6.03
2018-10-01T16:23:08.062Z,6.90
2018-10-01T16:27:13.067Z,7.17
2018-10-01T16:31:17.720Z,6.20
2018-10-01T16:35:25.139Z,6.27
2018-10-01T16:39:30.314Z,7.10
2018-10-01T16:43:34.915Z,7.00
2018-10-01T16:47:39.893Z,6.90
2018-10-01T16:51:46.197Z,6.90
2018-10-01T16:55:50.675Z,6.90
2018-10-01T16:59:55.878Z,7.70
2018-10-01T17:04:04.819Z,7.70
2018-10-01T17:08:13.543Z,7.87
2018-10-01T17:12:19.018Z,7.63
2018-10-01T18:25:47.545Z,5.53
2018-10-01T18:29:57.477Z,5.40
2018-10-01T18:34:02.699Z,5.63
2018-10-01T18:38:12.786Z,5.43
2018-10-01T18:42:17.054Z,5.40
2018-10-01T18:46:22.224Z,6.27
2018-10-01T18:50:26.228Z,5.33
2018-10-01T18:54:32.056Z,5.87
2018-10-01T18:58:36.562Z,5.70
2018-10-01T19:02:45.993Z,5.33
2018-10-01T19:06:50.629Z,5.73
2018-10-01T19:10:55.740Z,6.13
2018-10-01T19:14:59.992Z,6.13
2018-10-01T19:19:04.583Z,6.30
2018-10-01T19:23:08.681Z,5.80
2018-10-01T19:27:13.141Z,6.00
2018-10-01T19:31:20.953Z,6.13
